createdAt,value
2023-01-31T00:01:11.915Z,-1.85
2023-01-31T00:03:39.005Z,-1.87
2023-01-31T00:06:15.132Z,-1.85
2023-01-31T00:08:42.214Z,-1.80
2023-01-31T00:11:09.810Z,-1.76
2023-01-31T00:13:37.691Z,-1.74
2023-01-31T00:16:04.838Z,-1.73
2023-01-31T00:18:31.630Z,-1.73
2023-01-31T00:20:58.524Z,-1.71
2023-01-31T00:23:25.187Z,-1.70
2023-01-31T00:25:53.011Z,-1.65
2023-01-31T00:28:19.750Z,-1.60
2023-01-31T00:30:46.372Z,-1.58
2023-01-31T00:33:12.984Z,-1.57
2023-01-31T00:35:40.847Z,-1.56
2023-01-31T00:38:07.449Z,-1.57
2023-01-31T00:40:36.475Z,-1.57
2023-01-31T00:43:03.478Z,-1.51
2023-01-31T00:45:30.479Z,-1.46
2023-01-31T00:47:57.320Z,-1.44
2023-01-31T00:50:24.996Z,-1.43
2023-01-31T00:52:51.576Z,-1.43
2023-01-31T00:55:18.685Z,-1.42
2023-01-31T00:57:45.669Z,-1.41
2023-01-31T01:00:14.070Z,-1.39
2023-01-31T01:02:40.998Z,-1.38
2023-01-31T01:05:08.013Z,-1.38
2023-01-31T01:07:35.926Z,-1.38
2023-01-31T01:10:03.811Z,-1.39
2023-01-31T01:12:30.658Z,-1.40
2023-01-31T01:14:57.393Z,-1.39
2023-01-31T01:17:24.618Z,-1.33
2023-01-31T01:19:51.477Z,-1.32
2023-01-31T01:22:18.082Z,-1.30
2023-01-31T01:24:44.820Z,-1.30
2023-01-31T01:27:11.930Z,-1.30
2023-01-31T01:29:38.657Z,-1.31
2023-01-31T01:32:06.060Z,-1.29
2023-01-31T01:34:33.585Z,-1.26
2023-01-31T01:37:00.328Z,-1.20
2023-01-31T01:39:30.192Z,-1.18
2023-01-31T01:41:58.151Z,-1.19
2023-01-31T01:44:47.080Z,-1.19
2023-01-31T01:47:35.147Z,-1.19
2023-01-31T01:50:21.808Z,-1.17
2023-01-31T01:53:16.226Z,-1.14
2023-01-31T01:55:53.019Z,-1.12
2023-01-31T01:58:25.166Z,-1.08
2023-01-31T02:00:51.802Z,-1.06
2023-01-31T02:03:18.708Z,-1.06
2023-01-31T02:05:47.769Z,-1.04
2023-01-31T02:08:17.626Z,-1.02
2023-01-31T02:11:09.909Z,-1.04
2023-01-31T02:13:39.756Z,-1.10
2023-01-31T02:16:13.143Z,-1.13
2023-01-31T02:18:39.984Z,-1.14
2023-01-31T02:21:25.193Z,-1.14
2023-01-31T02:24:29.968Z,-1.12
2023-01-31T02:27:23.283Z,-1.11
2023-01-31T02:30:05.480Z,-1.14
2023-01-31T02:32:47.381Z,-1.14
2023-01-31T02:35:49.897Z,-1.14
2023-01-31T02:38:31.688Z,-1.13
2023-01-31T02:41:04.420Z,-1.11
2023-01-31T02:43:59.208Z,-1.08
2023-01-31T02:46:59.949Z,-1.07
2023-01-31T02:49:35.703Z,-1.06
2023-01-31T02:52:34.741Z,-1.08
2023-01-31T02:55:56.442Z,-1.07
2023-01-31T02:58:25.220Z,-1.08
2023-01-31T03:00:52.967Z,-1.09
2023-01-31T03:03:25.155Z,-1.09
2023-01-31T03:06:33.113Z,-1.13
2023-01-31T03:09:04.270Z,-1.15
2023-01-31T03:11:49.176Z,-1.15
2023-01-31T03:14:36.372Z,-1.17
2023-01-31T03:17:32.897Z,-1.14
2023-01-31T03:20:09.281Z,-1.08
2023-01-31T03:22:44.973Z,-1.06
2023-01-31T03:25:13.432Z,-1.07
2023-01-31T03:27:43.347Z,-1.08
2023-01-31T03:30:16.290Z,-1.08
2023-01-31T03:33:10.912Z,-1.09
2023-01-31T03:35:38.900Z,-1.11
2023-01-31T03:38:25.021Z,-1.08
2023-01-31T03:41:03.325Z,-1.06
2023-01-31T03:43:37.738Z,-1.05
2023-01-31T03:46:11.028Z,-1.05
2023-01-31T03:48:41.282Z,-1.08
2023-01-31T03:51:10.221Z,-1.11
2023-01-31T03:54:01.586Z,-1.12
2023-01-31T03:56:37.463Z,-1.10
2023-01-31T03:59:16.965Z,-1.07
2023-01-31T04:01:48.561Z,-1.04
2023-01-31T04:04:23.739Z,-1.04
2023-01-31T04:06:50.324Z,-1.04
2023-01-31T04:09:17.597Z,-1.03
2023-01-31T04:11:48.856Z,-1.00
2023-01-31T04:14:16.291Z,-0.98
2023-01-31T04:16:43.060Z,-0.95
2023-01-31T04:19:09.656Z,-0.93
2023-01-31T04:21:36.872Z,-0.91
2023-01-31T04:24:03.719Z,-0.91
2023-01-31T04:26:30.802Z,-0.96
2023-01-31T04:28:57.692Z,-0.98
2023-01-31T04:31:24.309Z,-0.98
2023-01-31T04:33:51.308Z,-0.96
2023-01-31T04:36:18.172Z,-0.99
2023-01-31T04:38:44.733Z,-1.01
2023-01-31T04:41:11.397Z,-1.00
2023-01-31T04:43:38.020Z,-0.97
2023-01-31T04:46:04.600Z,-0.92
2023-01-31T04:48:31.828Z,-0.87
2023-01-31T04:50:59.599Z,-0.85
2023-01-31T04:53:26.541Z,-0.85
2023-01-31T04:55:56.477Z,-0.84
2023-01-31T04:58:23.486Z,-0.85
2023-01-31T05:00:50.113Z,-0.89
2023-01-31T05:03:16.870Z,-0.87
2023-01-31T05:05:43.499Z,-0.87
2023-01-31T05:08:10.406Z,-0.88
2023-01-31T05:10:38.745Z,-0.91
2023-01-31T05:13:06.163Z,-0.93
2023-01-31T05:15:34.058Z,-0.92
2023-01-31T05:18:04.537Z,-0.91
2023-01-31T05:20:40.367Z,-0.90
2023-01-31T05:23:07.072Z,-0.90
2023-01-31T05:25:34.621Z,-0.92
2023-01-31T05:28:01.650Z,-0.95
2023-01-31T05:30:29.084Z,-0.97
2023-01-31T05:32:56.534Z,-0.95
2023-01-31T05:35:23.563Z,-0.92
2023-01-31T05:37:53.313Z,-0.92
2023-01-31T05:40:20.022Z,-0.92
2023-01-31T05:42:57.219Z,-0.95
2023-01-31T05:45:24.028Z,-0.95
2023-01-31T05:47:51.039Z,-0.94
2023-01-31T05:50:18.381Z,-0.90
2023-01-31T05:53:02.978Z,-0.87
2023-01-31T05:55:29.973Z,-0.88
2023-01-31T05:57:56.825Z,-0.88
2023-01-31T06:00:23.600Z,-0.86
2023-01-31T06:02:50.377Z,-0.83
2023-01-31T06:05:19.829Z,-0.78
2023-01-31T06:07:49.473Z,-0.72
2023-01-31T06:10:16.694Z,-0.65
2023-01-31T06:12:43.399Z,-0.58
2023-01-31T06:15:10.551Z,-0.52
2023-01-31T06:17:37.712Z,-0.51
2023-01-31T06:20:04.876Z,-0.49
2023-01-31T06:22:31.824Z,-0.47
2023-01-31T06:24:58.614Z,-0.44
2023-01-31T06:27:31.917Z,-0.39
2023-01-31T06:29:59.301Z,-0.32
2023-01-31T06:32:26.099Z,-0.24
2023-01-31T06:34:52.669Z,-0.16
2023-01-31T06:37:19.387Z,-0.10
2023-01-31T06:39:46.081Z,-0.05
2023-01-31T06:42:12.668Z,-0.02
2023-01-31T06:44:39.307Z,0.06
2023-01-31T06:47:06.144Z,0.12
2023-01-31T06:49:32.893Z,0.15
2023-01-31T06:52:00.863Z,0.18
2023-01-31T06:54:27.564Z,0.22
2023-01-31T06:56:54.847Z,0.27
2023-01-31T06:59:21.639Z,0.31
2023-01-31T07:01:48.719Z,0.34
2023-01-31T07:04:15.646Z,0.33
2023-01-31T07:06:42.292Z,0.36
2023-01-31T07:09:10.888Z,0.40
2023-01-31T07:11:38.198Z,0.43
2023-01-31T07:14:07.020Z,0.43
2023-01-31T07:16:37.133Z,0.44
2023-01-31T07:19:05.262Z,0.45
2023-01-31T07:21:32.829Z,0.45
2023-01-31T07:24:00.146Z,0.46
2023-01-31T07:26:26.902Z,0.48
2023-01-31T07:28:53.548Z,0.42
2023-01-31T07:31:20.402Z,0.35
2023-01-31T07:33:47.124Z,0.30
2023-01-31T07:36:14.854Z,0.29
2023-01-31T07:38:42.130Z,0.27
2023-01-31T07:41:09.351Z,0.25
2023-01-31T07:43:36.221Z,0.26
2023-01-31T07:46:08.399Z,0.31
2023-01-31T07:48:35.126Z,0.41
2023-01-31T07:57:23.506Z,0.59
2023-01-31T07:59:50.223Z,0.65
2023-01-31T08:02:35.801Z,0.72
2023-01-31T08:05:03.278Z,0.87
2023-01-31T08:07:30.731Z,1.01
2023-01-31T08:09:57.472Z,1.14
2023-01-31T08:12:24.214Z,1.30
2023-01-31T08:14:51.827Z,1.41
2023-01-31T08:17:18.616Z,1.50
2023-01-31T08:19:46.414Z,1.56
2023-01-31T08:22:13.104Z,1.65
2023-01-31T08:24:39.938Z,1.71
2023-01-31T08:27:06.606Z,1.74
2023-01-31T08:29:33.871Z,1.72
2023-01-31T08:32:02.705Z,1.67
2023-01-31T08:34:32.896Z,1.62
2023-01-31T08:37:00.716Z,1.57
2023-01-31T08:39:27.699Z,1.53
2023-01-31T08:41:54.348Z,1.50
2023-01-31T08:44:21.082Z,1.50
2023-01-31T08:46:48.140Z,1.53
2023-01-31T08:49:15.296Z,1.53
2023-01-31T08:51:44.670Z,1.55
2023-01-31T08:54:12.413Z,1.53
2023-01-31T08:56:39.209Z,1.50
2023-01-31T08:59:05.868Z,1.52
2023-01-31T09:01:34.817Z,1.54
2023-01-31T09:04:01.681Z,1.57
2023-01-31T09:06:29.265Z,1.57
2023-01-31T09:08:59.419Z,1.52
2023-01-31T09:11:27.615Z,1.53
2023-01-31T09:13:55.372Z,1.52
2023-01-31T09:16:23.081Z,1.50
2023-01-31T09:18:51.041Z,1.55
2023-01-31T09:21:19.739Z,1.60
2023-01-31T09:23:47.038Z,1.63
2023-01-31T09:26:14.614Z,1.66
2023-01-31T09:28:42.814Z,1.70
2023-01-31T09:31:15.696Z,1.71
2023-01-31T09:33:43.100Z,1.77
2023-01-31T09:36:11.844Z,1.86
2023-01-31T09:38:39.847Z,1.93
2023-01-31T09:41:29.990Z,2.00
2023-01-31T09:44:05.155Z,2.04
2023-01-31T09:46:37.293Z,2.05
2023-01-31T09:49:06.308Z,2.05
2023-01-31T09:51:37.201Z,1.97
2023-01-31T09:54:13.143Z,1.91
2023-01-31T09:56:50.746Z,1.89
2023-01-31T09:59:55.113Z,1.93
2023-01-31T10:03:08.473Z,2.00
2023-01-31T10:05:46.096Z,2.07
2023-01-31T10:08:47.541Z,2.10
2023-01-31T10:11:37.774Z,2.11
2023-01-31T10:14:31.751Z,2.11
2023-01-31T10:17:07.733Z,2.18
2023-01-31T10:19:54.723Z,2.34
2023-01-31T10:22:43.974Z,2.52
2023-01-31T10:25:20.669Z,2.71
2023-01-31T10:27:49.958Z,2.87
2023-01-31T10:30:48.257Z,2.91
2023-01-31T10:33:28.851Z,2.90
2023-01-31T10:35:56.605Z,2.93
2023-01-31T10:39:02.107Z,2.94
2023-01-31T10:41:38.203Z,2.98
2023-01-31T10:44:07.221Z,3.02
2023-01-31T10:46:34.404Z,3.02
2023-01-31T10:49:02.431Z,3.01
2023-01-31T10:51:55.893Z,2.96
2023-01-31T10:54:56.674Z,2.90
2023-01-31T10:57:23.418Z,2.88
2023-01-31T10:59:50.099Z,2.81
2023-01-31T11:02:22.220Z,2.81
2023-01-31T11:04:51.139Z,2.82
2023-01-31T11:07:18.486Z,2.84
2023-01-31T11:09:51.340Z,2.87
2023-01-31T11:12:21.521Z,2.89
2023-01-31T11:15:06.118Z,2.91
2023-01-31T11:17:33.276Z,2.87
2023-01-31T11:19:59.898Z,2.77
2023-01-31T11:22:30.841Z,2.72
2023-01-31T11:24:59.185Z,2.65
2023-01-31T11:27:34.337Z,2.60
2023-01-31T11:30:02.183Z,2.52
2023-01-31T11:32:31.324Z,2.46
2023-01-31T11:35:05.041Z,2.43
2023-01-31T11:37:34.425Z,2.39
2023-01-31T11:40:05.219Z,2.35
2023-01-31T11:42:32.064Z,2.30
2023-01-31T11:45:03.962Z,2.33
2023-01-31T11:47:39.948Z,2.33
2023-01-31T11:50:07.529Z,2.30
2023-01-31T11:52:34.360Z,2.24
2023-01-31T11:55:07.108Z,2.17
2023-01-31T11:57:35.372Z,2.09
2023-01-31T12:00:06.063Z,2.03
2023-01-31T12:02:38.936Z,2.02
2023-01-31T12:05:17.218Z,2.03
2023-01-31T12:07:49.720Z,2.04
2023-01-31T12:10:41.254Z,2.06
2023-01-31T12:13:19.265Z,2.06
2023-01-31T12:16:01.148Z,2.05
2023-01-31T12:18:50.725Z,2.02
2023-01-31T12:32:48.871Z,2.16
2023-01-31T12:35:38.018Z,2.15
2023-01-31T12:38:32.914Z,2.16
2023-01-31T12:41:06.857Z,2.22
2023-01-31T12:43:52.529Z,2.28
2023-01-31T12:46:25.560Z,2.26
2023-01-31T12:49:04.936Z,2.24
2023-01-31T12:51:41.228Z,2.23
2023-01-31T12:54:22.774Z,2.22
2023-01-31T12:56:55.458Z,2.22
2023-01-31T12:59:50.477Z,2.22
2023-01-31T13:02:40.962Z,2.24
2023-01-31T13:05:30.831Z,2.23
2023-01-31T13:08:17.146Z,2.22
2023-01-31T13:11:07.190Z,2.23
2023-01-31T14:22:41.907Z,1.95
2023-01-31T14:25:08.644Z,2.11
2023-01-31T14:27:36.369Z,2.08
2023-01-31T14:30:06.099Z,2.05
2023-01-31T14:33:08.693Z,2.04
2023-01-31T14:36:00.558Z,2.01
2023-01-31T14:38:48.889Z,1.98
2023-01-31T14:41:37.397Z,1.94
2023-01-31T14:44:37.954Z,1.88
2023-01-31T14:47:17.744Z,1.84
2023-01-31T14:50:03.238Z,1.84
2023-01-31T14:52:35.921Z,1.84
2023-01-31T14:55:27.305Z,1.82
2023-01-31T14:57:57.885Z,1.78
2023-01-31T15:00:29.217Z,1.73
2023-01-31T15:03:19.076Z,1.68
2023-01-31T15:05:55.042Z,1.62
2023-01-31T15:08:25.096Z,1.59
2023-01-31T15:11:40.731Z,1.59
2023-01-31T15:14:34.162Z,1.58
2023-01-31T15:17:32.047Z,1.61
2023-01-31T15:20:18.234Z,1.61
2023-01-31T15:22:44.948Z,1.56
2023-01-31T15:25:22.071Z,1.55
2023-01-31T15:27:49.410Z,1.59
2023-01-31T15:30:20.421Z,1.62
2023-01-31T15:32:49.776Z,1.64
2023-01-31T15:35:30.547Z,1.66
2023-01-31T15:38:22.046Z,1.67
2023-01-31T15:41:05.625Z,1.67
2023-01-31T15:43:38.298Z,1.67
2023-01-31T15:46:21.502Z,1.66
2023-01-31T15:48:48.406Z,1.70
2023-01-31T15:51:15.397Z,1.69
2023-01-31T15:53:42.262Z,1.67
2023-01-31T15:56:23.768Z,1.63
2023-01-31T15:58:55.438Z,1.58
2023-01-31T16:01:22.361Z,1.56
2023-01-31T16:03:50.959Z,1.56
2023-01-31T16:06:31.689Z,1.55
2023-01-31T16:09:01.217Z,1.59
2023-01-31T16:11:32.967Z,1.62
2023-01-31T16:14:02.805Z,1.61
2023-01-31T16:16:29.841Z,1.58
2023-01-31T16:18:57.952Z,1.57
2023-01-31T16:21:31.717Z,1.54
2023-01-31T16:24:11.878Z,1.49
2023-01-31T16:27:13.319Z,1.49
2023-01-31T16:29:47.967Z,1.51
2023-01-31T16:32:23.601Z,1.53
2023-01-31T16:35:00.981Z,1.54
2023-01-31T16:37:38.737Z,1.56
2023-01-31T16:40:17.604Z,1.57
2023-01-31T16:42:44.470Z,1.56
2023-01-31T16:45:31.975Z,1.59
2023-01-31T16:48:21.240Z,1.62
2023-01-31T16:50:49.445Z,1.58
2023-01-31T16:53:26.432Z,1.55
2023-01-31T16:56:19.461Z,1.50
2023-01-31T16:58:50.699Z,1.46
2023-01-31T17:01:21.511Z,1.40
2023-01-31T17:03:59.766Z,1.38
2023-01-31T17:06:26.422Z,1.40
2023-01-31T17:08:56.436Z,1.39
2023-01-31T17:11:39.615Z,1.40
2023-01-31T17:14:10.154Z,1.41
2023-01-31T17:16:36.818Z,1.35
2023-01-31T17:19:03.840Z,1.33
2023-01-31T17:21:32.406Z,1.32
2023-01-31T17:23:59.126Z,1.31
2023-01-31T17:26:25.733Z,1.30
2023-01-31T17:29:01.578Z,1.30
2023-01-31T17:31:30.730Z,1.31
2023-01-31T17:34:00.905Z,1.33
2023-01-31T17:36:27.695Z,1.35
2023-01-31T17:38:54.441Z,1.38
2023-01-31T17:41:23.888Z,1.34
2023-01-31T17:43:50.512Z,1.31
2023-01-31T17:46:17.984Z,1.29
2023-01-31T17:48:44.714Z,1.26
2023-01-31T17:51:12.049Z,1.26
2023-01-31T17:53:47.831Z,1.26
2023-01-31T17:56:17.379Z,1.28
2023-01-31T17:58:44.129Z,1.28
2023-01-31T18:01:13.282Z,1.26
2023-01-31T18:03:40.027Z,1.24
2023-01-31T18:06:07.602Z,1.23
2023-01-31T18:08:34.615Z,1.27
2023-01-31T18:11:05.900Z,1.29
2023-01-31T18:13:32.730Z,1.29
2023-01-31T18:16:25.052Z,1.26
2023-01-31T18:18:53.138Z,1.25
2023-01-31T18:21:21.096Z,1.23
2023-01-31T18:23:51.973Z,1.24
2023-01-31T18:26:19.007Z,1.23
2023-01-31T18:28:46.066Z,1.21
2023-01-31T18:31:14.539Z,1.22
2023-01-31T18:33:43.202Z,1.23
2023-01-31T18:36:12.906Z,1.23
2023-01-31T18:38:42.006Z,1.22
2023-01-31T18:41:10.390Z,1.23
2023-01-31T18:43:37.571Z,1.25
2023-01-31T18:46:04.665Z,1.25
2023-01-31T18:48:31.714Z,1.26
2023-01-31T18:51:06.648Z,1.29
2023-01-31T18:53:34.649Z,1.32
2023-01-31T18:56:05.558Z,1.34
2023-01-31T18:58:33.701Z,1.36
2023-01-31T19:01:17.012Z,1.31
2023-01-31T19:03:44.486Z,1.28
2023-01-31T19:06:13.353Z,1.23
2023-01-31T19:08:40.264Z,1.19
2023-01-31T19:11:12.095Z,1.19
2023-01-31T19:13:39.810Z,1.20
2023-01-31T19:16:08.300Z,1.19
2023-01-31T19:18:35.168Z,1.16
2023-01-31T19:21:03.080Z,1.14
2023-01-31T19:23:29.762Z,1.12
2023-01-31T19:25:56.369Z,1.10
2023-01-31T19:28:24.185Z,1.10
2023-01-31T19:30:51.559Z,1.12
2023-01-31T19:33:18.853Z,1.13
2023-01-31T19:35:45.814Z,1.13
2023-01-31T19:38:13.460Z,1.14
2023-01-31T19:40:42.047Z,1.16
2023-01-31T19:43:08.973Z,1.17
2023-01-31T19:45:35.681Z,1.16
2023-01-31T19:48:02.468Z,1.19
2023-01-31T19:50:30.891Z,1.17
2023-01-31T19:52:57.570Z,1.13
2023-01-31T19:55:24.227Z,1.07
2023-01-31T19:57:53.471Z,1.00
2023-01-31T20:00:20.459Z,0.92
2023-01-31T20:02:47.822Z,0.92
2023-01-31T20:05:15.065Z,0.94
2023-01-31T20:07:42.118Z,0.92
2023-01-31T20:10:10.509Z,0.87
2023-01-31T20:12:37.552Z,0.83
2023-01-31T20:15:06.170Z,0.81
2023-01-31T20:17:33.694Z,0.80
2023-01-31T20:20:00.853Z,0.81
2023-01-31T20:22:28.371Z,0.83
2023-01-31T20:24:56.523Z,0.82
2023-01-31T20:27:24.398Z,0.83
2023-01-31T20:29:51.549Z,0.83
2023-01-31T20:32:18.423Z,0.78
2023-01-31T20:34:45.314Z,0.75
2023-01-31T20:37:12.237Z,0.75
2023-01-31T20:39:38.893Z,0.74
2023-01-31T20:42:05.574Z,0.71
2023-01-31T20:44:32.461Z,0.69
2023-01-31T20:46:59.138Z,0.68
2023-01-31T20:49:26.920Z,0.71
2023-01-31T20:51:53.678Z,0.73
2023-01-31T20:54:20.813Z,0.74
2023-01-31T20:56:47.793Z,0.77
2023-01-31T20:59:14.426Z,0.77
2023-01-31T21:01:42.661Z,0.75
2023-01-31T21:04:09.295Z,0.73
2023-01-31T21:06:39.570Z,0.75
2023-01-31T21:09:06.248Z,0.80
2023-01-31T21:11:32.936Z,0.81
2023-01-31T21:13:59.705Z,0.81
2023-01-31T21:16:26.483Z,0.81
2023-01-31T21:18:53.564Z,0.77
2023-01-31T21:21:23.465Z,0.78
2023-01-31T21:23:54.336Z,0.82
2023-01-31T21:26:21.497Z,0.83
2023-01-31T21:28:48.295Z,0.79
2023-01-31T21:31:16.898Z,0.74
2023-01-31T21:33:50.680Z,0.69
2023-01-31T21:36:19.351Z,0.68
2023-01-31T21:38:46.332Z,0.69
2023-01-31T21:41:32.823Z,0.67
2023-01-31T21:43:59.650Z,0.67
2023-01-31T21:46:26.457Z,0.66
2023-01-31T21:48:54.962Z,0.63
2023-01-31T21:51:24.027Z,0.62
2023-01-31T21:53:50.901Z,0.63
2023-01-31T21:56:19.586Z,0.61
2023-01-31T21:58:46.432Z,0.62
2023-01-31T22:01:17.224Z,0.62
2023-01-31T22:03:44.656Z,0.62
2023-01-31T22:06:12.445Z,0.64
2023-01-31T22:08:39.326Z,0.64
